createdAt,value
2022-08-20T00:00:33.376Z,38.30
2022-08-20T00:01:33.463Z,38.53
2022-08-20T00:02:33.369Z,40.00
2022-08-20T00:03:33.338Z,38.37
2022-08-20T00:04:33.961Z,37.06
2022-08-20T00:05:33.350Z,37.01
2022-08-20T00:06:33.320Z,38.60
2022-08-20T00:07:33.455Z,37.21
2022-08-20T00:08:33.311Z,37.92
2022-08-20T00:09:33.334Z,36.71
2022-08-20T00:10:33.311Z,36.75
2022-08-20T00:11:34.267Z,37.64
2022-08-20T00:12:33.274Z,38.13
2022-08-20T00:13:33.271Z,39.27
2022-08-20T00:14:34.075Z,37.55
2022-08-20T00:15:33.281Z,38.30
2022-08-20T00:16:33.250Z,39.65
2022-08-20T00:17:34.233Z,38.22
2022-08-20T00:18:33.259Z,41.09
2022-08-20T00:19:33.250Z,37.56
2022-08-20T00:20:33.267Z,38.60
2022-08-20T00:21:33.215Z,37.46
2022-08-20T00:22:33.219Z,41.26
2022-08-20T00:23:33.203Z,38.90
2022-08-20T00:24:33.193Z,38.19
2022-08-20T00:25:33.301Z,37.74
2022-08-20T00:26:33.199Z,39.02
2022-08-20T00:27:33.193Z,38.57
2022-08-20T00:28:33.157Z,37.83
2022-08-20T00:29:33.148Z,37.37
2022-08-20T00:30:33.168Z,38.62
2022-08-20T00:31:33.147Z,37.46
2022-08-20T00:32:33.971Z,40.70
2022-08-20T00:33:33.118Z,40.76
2022-08-20T00:34:33.121Z,37.93
2022-08-20T00:35:33.148Z,37.42
2022-08-20T00:36:33.176Z,38.68
2022-08-20T00:37:33.108Z,37.39
2022-08-20T00:38:33.095Z,37.41
2022-08-20T00:39:33.137Z,37.39
2022-08-20T00:40:33.129Z,37.55
2022-08-20T00:41:33.072Z,37.56
2022-08-20T00:42:33.085Z,37.46
2022-08-20T00:43:33.055Z,38.81
2022-08-20T00:44:33.174Z,37.95
2022-08-20T00:45:33.083Z,38.06
2022-08-20T00:46:33.861Z,41.73
2022-08-20T00:47:33.031Z,38.38
2022-08-20T00:48:34.027Z,38.64
2022-08-20T00:49:33.027Z,38.93
2022-08-20T00:50:33.007Z,37.67
2022-08-20T00:51:33.168Z,37.75
2022-08-20T00:52:32.992Z,41.83
2022-08-20T00:53:32.998Z,37.78
2022-08-20T00:54:33.009Z,39.17
2022-08-20T00:55:32.983Z,37.81
2022-08-20T00:56:33.021Z,39.22
2022-08-20T00:57:54.908Z,39.77
2022-08-20T00:58:33.949Z,40.67
2022-08-20T00:59:32.995Z,40.38
2022-08-20T01:00:33.838Z,40.06
2022-08-20T01:01:32.970Z,39.81
2022-08-20T01:02:33.983Z,37.68
2022-08-20T01:03:32.938Z,39.20
2022-08-20T01:04:32.911Z,38.70
2022-08-20T01:05:33.082Z,37.45
2022-08-20T01:06:32.897Z,37.79
2022-08-20T01:07:32.965Z,39.29
2022-08-20T01:08:32.879Z,38.55
2022-08-20T01:09:49.890Z,39.77
2022-08-20T01:10:33.870Z,37.37
2022-08-20T01:11:37.143Z,39.76
2022-08-20T01:12:33.898Z,41.76
2022-08-20T01:13:32.852Z,37.54
2022-08-20T01:14:32.837Z,38.56
2022-08-20T01:15:32.831Z,39.30
2022-08-20T01:16:32.834Z,37.96
2022-08-20T01:17:32.817Z,38.85
2022-08-20T01:18:32.829Z,37.85
2022-08-20T01:19:32.801Z,37.27
2022-08-20T01:20:32.797Z,38.10
2022-08-20T01:21:32.788Z,38.24
2022-08-20T01:22:32.813Z,37.77
2022-08-20T01:23:32.806Z,37.88
2022-08-20T01:24:32.759Z,38.68
2022-08-20T01:25:32.758Z,37.54
2022-08-20T01:26:32.755Z,39.49
2022-08-20T01:27:33.661Z,37.80
2022-08-20T01:28:33.766Z,41.03
2022-08-20T01:29:32.857Z,41.98
2022-08-20T01:30:32.748Z,37.70
2022-08-20T01:31:32.726Z,39.43
2022-08-20T01:32:32.728Z,37.62
2022-08-20T01:33:32.771Z,37.69
2022-08-20T01:34:32.716Z,38.52
2022-08-20T01:35:32.713Z,37.79
2022-08-20T01:36:32.680Z,37.91
2022-08-20T01:37:32.681Z,39.58
2022-08-20T01:38:32.713Z,38.87
2022-08-20T01:39:32.709Z,40.62
2022-08-20T01:40:32.656Z,40.14
2022-08-20T01:41:32.651Z,38.87
2022-08-20T01:42:32.662Z,38.00
2022-08-20T01:43:36.466Z,37.79
2022-08-20T01:44:32.685Z,37.81
2022-08-20T01:45:32.636Z,38.03
2022-08-20T01:46:32.613Z,39.13
2022-08-20T01:47:35.360Z,40.85
2022-08-20T01:48:33.595Z,38.19
2022-08-20T01:49:32.675Z,38.35
2022-08-20T01:50:32.585Z,37.48
2022-08-20T01:51:32.577Z,37.37
2022-08-20T01:52:32.624Z,37.46
2022-08-20T01:53:32.562Z,38.79
2022-08-20T01:54:32.590Z,40.34
2022-08-20T01:55:32.539Z,39.08
2022-08-20T01:56:32.547Z,39.19
2022-08-20T01:57:32.529Z,38.60
2022-08-20T01:58:32.513Z,38.38
2022-08-20T01:59:33.565Z,41.32
2022-08-20T02:00:32.521Z,39.35
2022-08-20T02:01:32.570Z,39.04
2022-08-20T02:02:33.522Z,39.10
2022-08-20T02:03:36.965Z,37.76
2022-08-20T02:04:34.520Z,39.38
2022-08-20T02:05:32.494Z,38.00
2022-08-20T02:06:32.462Z,39.28
2022-08-20T02:07:32.470Z,40.34
2022-08-20T02:08:32.468Z,40.07
2022-08-20T02:09:32.451Z,37.71
2022-08-20T02:10:33.259Z,37.69
2022-08-20T02:11:32.437Z,37.51
2022-08-20T02:12:32.441Z,37.71
2022-08-20T02:13:32.423Z,37.83
2022-08-20T02:14:32.433Z,37.65
2022-08-20T02:15:37.128Z,38.07
2022-08-20T02:16:33.411Z,39.30
2022-08-20T02:17:32.419Z,37.71
2022-08-20T02:18:32.389Z,38.19
2022-08-20T02:19:32.394Z,37.60
2022-08-20T02:20:32.416Z,37.99
2022-08-20T02:21:32.502Z,37.75
2022-08-20T02:22:32.362Z,39.13
2022-08-20T02:23:32.375Z,39.15
2022-08-20T02:24:32.356Z,40.24
2022-08-20T02:25:32.348Z,38.08
2022-08-20T02:26:32.386Z,38.88
2022-08-20T02:27:32.342Z,39.06
2022-08-20T02:28:32.322Z,38.61
2022-08-20T02:29:32.332Z,38.12
2022-08-20T02:30:33.330Z,38.20
2022-08-20T02:31:34.898Z,38.80
2022-08-20T02:32:34.126Z,37.85
2022-08-20T02:33:32.297Z,38.85
2022-08-20T02:34:32.296Z,40.76
2022-08-20T02:35:32.269Z,39.94
2022-08-20T02:36:32.269Z,39.71
2022-08-20T02:37:32.292Z,37.91
2022-08-20T02:38:32.267Z,37.80
2022-08-20T02:39:32.410Z,38.29
2022-08-20T02:40:32.241Z,38.77
2022-08-20T02:41:32.257Z,38.87
2022-08-20T02:42:32.268Z,38.67
2022-08-20T02:43:32.213Z,40.48
2022-08-20T02:44:32.223Z,40.35
2022-08-20T02:45:32.207Z,40.32
2022-08-20T02:46:32.207Z,38.56
2022-08-20T02:47:32.208Z,37.83
2022-08-20T02:48:32.189Z,40.33
2022-08-20T02:49:32.191Z,39.43
2022-08-20T02:50:32.244Z,38.04
2022-08-20T02:51:32.223Z,38.09
2022-08-20T02:52:32.177Z,39.39
2022-08-20T02:53:32.137Z,40.68
2022-08-20T02:54:32.142Z,38.08
2022-08-20T02:55:32.207Z,38.12
2022-08-20T02:56:32.112Z,38.13
2022-08-20T02:57:32.149Z,39.81
2022-08-20T02:58:32.117Z,39.08
2022-08-20T02:59:32.123Z,43.42
2022-08-20T03:00:37.977Z,40.06
2022-08-20T03:01:33.162Z,39.10
2022-08-20T03:02:32.124Z,37.99
2022-08-20T03:03:32.089Z,41.37
2022-08-20T03:04:32.079Z,37.98
2022-08-20T03:05:32.069Z,38.95
2022-08-20T03:06:32.067Z,38.58
2022-08-20T03:07:32.059Z,40.19
2022-08-20T03:08:32.073Z,38.31
2022-08-20T03:09:32.045Z,39.71
2022-08-20T03:10:32.036Z,38.05
2022-08-20T03:11:32.028Z,38.16
2022-08-20T03:12:32.092Z,40.46
2022-08-20T03:13:32.033Z,38.85
2022-08-20T03:14:32.006Z,40.93
2022-08-20T03:15:32.005Z,37.53
2022-08-20T03:16:32.018Z,37.57
2022-08-20T03:17:31.999Z,37.70
2022-08-20T03:18:32.004Z,41.04
2022-08-20T03:19:31.969Z,38.96
2022-08-20T03:20:31.969Z,37.88
2022-08-20T03:21:31.965Z,40.64
2022-08-20T03:22:31.948Z,37.90
2022-08-20T03:23:32.026Z,37.83
2022-08-20T03:24:31.940Z,37.90
2022-08-20T03:25:31.937Z,38.81
2022-08-20T03:26:31.943Z,38.10
2022-08-20T03:27:32.719Z,38.88
2022-08-20T03:28:31.977Z,38.17
2022-08-20T03:29:31.898Z,38.49
2022-08-20T03:30:31.894Z,37.59
2022-08-20T03:31:31.893Z,37.80
2022-08-20T03:32:31.896Z,39.97
2022-08-20T03:33:31.904Z,40.06
2022-08-20T03:34:31.880Z,39.31
2022-08-20T03:35:31.858Z,40.15
2022-08-20T03:36:31.874Z,38.96
2022-08-20T03:37:31.854Z,38.69
2022-08-20T03:38:32.406Z,37.97
2022-08-20T03:39:31.861Z,39.28
2022-08-20T03:40:31.826Z,39.18
2022-08-20T03:41:31.810Z,38.91
2022-08-20T03:42:31.799Z,39.01
2022-08-20T03:43:31.799Z,37.50
2022-08-20T03:44:31.816Z,37.85
2022-08-20T03:45:31.795Z,39.60
2022-08-20T03:46:31.789Z,40.11
2022-08-20T03:47:31.778Z,40.74
2022-08-20T03:48:31.776Z,39.49
2022-08-20T03:49:31.812Z,38.44
2022-08-20T03:50:31.757Z,39.09
2022-08-20T03:51:31.741Z,39.26
2022-08-20T03:52:32.742Z,37.76
2022-08-20T03:53:31.834Z,37.55
2022-08-20T03:54:32.177Z,38.07
2022-08-20T03:55:31.725Z,38.24
2022-08-20T03:56:31.721Z,39.45
2022-08-20T03:57:31.710Z,38.56
2022-08-20T03:58:35.639Z,37.62
2022-08-20T03:59:31.705Z,39.63
2022-08-20T04:00:31.719Z,39.45
2022-08-20T04:01:45.504Z,38.51
2022-08-20T04:02:32.775Z,38.20
2022-08-20T04:03:31.656Z,38.30
2022-08-20T04:04:31.657Z,38.45
2022-08-20T04:05:31.676Z,38.25
2022-08-20T04:06:31.639Z,39.29
2022-08-20T04:07:31.634Z,39.19
2022-08-20T04:08:31.626Z,41.99
2022-08-20T04:09:31.613Z,38.59
2022-08-20T04:10:31.633Z,38.96
2022-08-20T04:11:31.617Z,38.30
2022-08-20T04:12:31.590Z,39.55
2022-08-20T04:13:31.591Z,38.31
2022-08-20T04:14:31.583Z,37.96
2022-08-20T04:15:31.627Z,38.65
2022-08-20T04:16:31.568Z,39.01
2022-08-20T04:17:32.564Z,38.43
2022-08-20T04:18:31.560Z,40.40
2022-08-20T04:19:34.299Z,38.58
2022-08-20T04:20:32.639Z,41.40
2022-08-20T04:21:32.850Z,40.43
2022-08-20T04:22:31.527Z,38.69
2022-08-20T04:23:31.518Z,42.17
2022-08-20T04:24:32.795Z,39.51
2022-08-20T04:25:36.089Z,39.09
2022-08-20T04:26:31.502Z,39.65
2022-08-20T04:27:31.485Z,41.58
2022-08-20T04:28:31.494Z,39.09
2022-08-20T04:29:31.932Z,39.40
2022-08-20T04:30:31.480Z,38.31
2022-08-20T04:31:31.518Z,40.54
2022-08-20T04:32:31.464Z,39.76
2022-08-20T04:33:33.337Z,38.27
2022-08-20T04:34:31.460Z,42.40
2022-08-20T04:35:31.441Z,40.11
2022-08-20T04:36:31.502Z,41.16
2022-08-20T04:37:31.432Z,42.32
2022-08-20T04:38:48.209Z,43.07
2022-08-20T04:39:32.454Z,40.83
2022-08-20T04:40:31.411Z,40.97
2022-08-20T04:41:31.393Z,40.47
2022-08-20T04:42:31.440Z,41.20
2022-08-20T04:43:31.387Z,40.88
2022-08-20T04:44:31.368Z,39.78
2022-08-20T04:45:31.372Z,38.51
2022-08-20T04:46:31.358Z,39.96
2022-08-20T04:47:34.620Z,39.65
2022-08-20T04:48:31.344Z,38.75
2022-08-20T04:49:31.341Z,39.10
2022-08-20T04:50:31.343Z,40.40
2022-08-20T04:51:31.675Z,39.92
2022-08-20T04:52:31.315Z,38.72
2022-08-20T04:53:31.346Z,42.40
2022-08-20T04:54:31.300Z,39.63
2022-08-20T04:55:31.299Z,39.76
2022-08-20T04:56:31.293Z,40.49
2022-08-20T04:57:31.290Z,43.65
2022-08-20T04:58:31.307Z,40.41
2022-08-20T04:59:31.265Z,40.47
2022-08-20T05:00:31.266Z,41.60
2022-08-20T05:01:31.277Z,39.83
2022-08-20T05:02:31.241Z,39.27
2022-08-20T05:03:31.231Z,42.08
2022-08-20T05:04:31.273Z,40.50
2022-08-20T05:05:31.210Z,40.12
2022-08-20T05:06:31.238Z,39.67
2022-08-20T05:07:31.207Z,40.24
2022-08-20T05:08:31.194Z,40.59
2022-08-20T05:09:31.233Z,38.76
2022-08-20T05:10:33.191Z,43.91
2022-08-20T05:11:35.567Z,41.14
2022-08-20T05:12:32.166Z,41.21
2022-08-20T05:13:31.159Z,38.54
2022-08-20T05:14:31.147Z,40.55
2022-08-20T05:15:31.191Z,38.87
2022-08-20T05:16:31.141Z,41.26
2022-08-20T05:17:31.131Z,38.34
2022-08-20T05:18:31.124Z,40.21
2022-08-20T05:19:32.375Z,40.46
2022-08-20T05:20:31.206Z,41.13
2022-08-20T05:21:31.107Z,39.33
2022-08-20T05:22:31.160Z,40.43
2022-08-20T05:23:31.090Z,38.70
2022-08-20T05:24:31.079Z,39.56
2022-08-20T05:25:31.070Z,39.20
2022-08-20T05:26:31.145Z,39.64
2022-08-20T05:27:31.165Z,39.84
2022-08-20T05:28:31.058Z,39.76
2022-08-20T05:29:31.048Z,40.02
2022-08-20T05:30:31.053Z,40.39
2022-08-20T05:31:33.302Z,40.39
2022-08-20T05:32:32.089Z,40.08
2022-08-20T05:33:32.255Z,39.77
2022-08-20T05:34:31.124Z,40.95
2022-08-20T05:35:31.263Z,39.36
2022-08-20T05:36:33.692Z,40.36
2022-08-20T05:37:32.875Z,39.83
2022-08-20T05:38:31.930Z,41.33
2022-08-20T05:39:35.413Z,40.57
2022-08-20T05:40:33.805Z,39.41
2022-08-20T05:41:30.971Z,40.18
2022-08-20T05:42:30.993Z,40.34
2022-08-20T05:43:30.953Z,41.35
2022-08-20T05:44:30.948Z,40.07
2022-08-20T05:45:30.946Z,42.48
2022-08-20T05:46:30.929Z,39.91
2022-08-20T05:47:30.969Z,39.92
2022-08-20T05:48:35.764Z,39.14
2022-08-20T05:49:32.234Z,41.06
2022-08-20T05:50:30.903Z,40.26
2022-08-20T05:51:30.895Z,41.65
2022-08-20T05:52:30.893Z,40.50
2022-08-20T05:53:30.937Z,40.78
2022-08-20T05:54:31.313Z,39.67
2022-08-20T05:55:32.306Z,38.54
2022-08-20T05:56:31.068Z,39.01
2022-08-20T05:57:30.863Z,38.24
2022-08-20T05:58:31.136Z,39.89
2022-08-20T05:59:31.381Z,40.56
2022-08-20T06:00:30.841Z,38.85
2022-08-20T06:01:30.936Z,39.51
2022-08-20T06:02:30.824Z,40.18
2022-08-20T06:03:31.092Z,39.91
2022-08-20T06:04:30.876Z,39.80
2022-08-20T06:05:31.800Z,39.87
2022-08-20T06:06:44.472Z,40.52
2022-08-20T06:07:31.784Z,40.12
2022-08-20T06:08:30.909Z,43.23
2022-08-20T06:09:32.455Z,39.90
2022-08-20T06:10:30.949Z,40.62
2022-08-20T06:11:33.866Z,38.60
2022-08-20T06:12:32.858Z,40.95
2022-08-20T06:13:30.873Z,39.63
2022-08-20T06:14:30.741Z,37.69
2022-08-20T06:15:30.791Z,37.53
2022-08-20T06:16:30.850Z,40.35
2022-08-20T06:17:34.768Z,40.35
2022-08-20T06:18:31.741Z,39.07
2022-08-20T06:19:32.234Z,40.35
2022-08-20T06:20:30.744Z,41.06
2022-08-20T06:21:30.706Z,39.50
2022-08-20T06:22:30.708Z,39.64
2022-08-20T06:23:45.543Z,40.61
2022-08-20T06:24:31.676Z,40.47
2022-08-20T06:25:33.839Z,40.74
2022-08-20T06:26:31.736Z,39.16
2022-08-20T06:27:30.715Z,40.29
2022-08-20T06:28:30.868Z,40.28
2022-08-20T06:29:30.635Z,40.05
2022-08-20T06:30:30.629Z,41.05
2022-08-20T06:31:30.670Z,41.18
2022-08-20T06:32:32.406Z,41.37
2022-08-20T06:33:30.596Z,40.61
2022-08-20T06:34:30.925Z,39.59
2022-08-20T06:35:30.589Z,41.13
2022-08-20T06:36:30.583Z,41.83
2022-08-20T06:37:31.099Z,44.38
2022-08-20T06:38:30.570Z,41.35
2022-08-20T06:39:30.557Z,40.75
2022-08-20T06:40:30.579Z,39.03
2022-08-20T06:41:36.250Z,42.24
2022-08-20T06:42:31.614Z,39.56
2022-08-20T06:43:30.527Z,41.92
2022-08-20T06:44:30.524Z,40.10
2022-08-20T06:45:30.510Z,40.78
2022-08-20T06:46:30.523Z,41.04
2022-08-20T06:47:30.493Z,39.98
2022-08-20T06:48:31.546Z,40.58
2022-08-20T06:49:34.126Z,41.73
2022-08-20T06:50:30.477Z,38.44
2022-08-20T06:51:30.474Z,41.51
2022-08-20T06:52:52.337Z,40.88
2022-08-20T06:53:31.558Z,39.47
2022-08-20T06:54:30.464Z,40.04
2022-08-20T06:55:30.441Z,40.36
2022-08-20T06:56:30.439Z,41.50
2022-08-20T06:57:30.438Z,39.35
2022-08-20T06:58:38.318Z,39.27
2022-08-20T06:59:31.482Z,41.03
2022-08-20T07:00:30.416Z,41.06
2022-08-20T07:01:30.444Z,41.73
2022-08-20T07:02:30.635Z,41.28
2022-08-20T07:03:31.406Z,40.17
2022-08-20T07:04:30.445Z,40.33
2022-08-20T07:05:30.370Z,41.02
2022-08-20T07:06:30.357Z,40.59
2022-08-20T07:07:30.356Z,42.36
2022-08-20T07:08:30.352Z,42.07
2022-08-20T07:09:30.334Z,41.54
2022-08-20T07:10:30.396Z,43.28
2022-08-20T07:11:30.326Z,41.43
2022-08-20T07:12:30.328Z,43.46
2022-08-20T07:13:30.338Z,40.06
2022-08-20T07:14:30.466Z,42.27
2022-08-20T07:15:30.339Z,40.68
2022-08-20T07:16:30.302Z,41.55
2022-08-20T07:17:30.288Z,39.29
2022-08-20T07:18:30.278Z,37.90
2022-08-20T07:19:30.281Z,42.42
2022-08-20T07:20:30.268Z,40.46
2022-08-20T07:21:30.304Z,40.40
2022-08-20T07:22:30.250Z,40.52
2022-08-20T07:23:30.237Z,40.75
2022-08-20T07:24:32.820Z,41.37
2022-08-20T07:25:30.224Z,44.53
2022-08-20T07:26:30.402Z,42.86
2022-08-20T07:27:30.214Z,42.79
2022-08-20T07:28:30.206Z,39.37
2022-08-20T07:29:30.195Z,38.84
2022-08-20T07:30:30.194Z,41.49
2022-08-20T07:31:31.575Z,39.68
2022-08-20T07:32:30.174Z,40.38
2022-08-20T07:33:30.176Z,42.16
2022-08-20T07:34:30.157Z,40.05
2022-08-20T07:35:30.706Z,40.17
2022-08-20T07:36:30.159Z,41.73
2022-08-20T07:37:30.194Z,41.12
2022-08-20T07:38:30.124Z,39.31
2022-08-20T07:39:30.135Z,38.87
2022-08-20T07:40:30.140Z,42.29
2022-08-20T07:41:30.110Z,41.34
2022-08-20T07:42:30.138Z,39.85
2022-08-20T07:43:30.103Z,39.69
2022-08-20T07:44:31.195Z,42.75
2022-08-20T07:45:30.077Z,40.66
2022-08-20T07:46:31.322Z,37.93
2022-08-20T07:47:30.069Z,38.68
2022-08-20T07:48:32.231Z,37.56
2022-08-20T07:49:30.054Z,39.75
2022-08-20T07:50:30.047Z,40.75
2022-08-20T07:51:30.047Z,38.61
2022-08-20T07:52:30.023Z,40.05
2022-08-20T07:53:34.836Z,38.54
2022-08-20T07:54:32.020Z,42.11
2022-08-20T07:55:30.015Z,37.68
2022-08-20T07:56:29.996Z,39.77
2022-08-20T07:57:29.999Z,41.37
2022-08-20T07:58:33.285Z,40.88
2022-08-20T07:59:30.528Z,38.29
2022-08-20T08:00:29.973Z,40.41
2022-08-20T08:01:29.970Z,39.84
2022-08-20T08:02:29.957Z,39.07
2022-08-20T08:03:39.385Z,38.86
2022-08-20T08:04:30.988Z,40.71
2022-08-20T08:05:29.937Z,39.98
2022-08-20T08:06:31.271Z,38.00
2022-08-20T08:07:32.109Z,38.89
2022-08-20T08:08:29.909Z,40.74
2022-08-20T08:09:29.900Z,39.86
2022-08-20T08:10:29.934Z,39.41
2022-08-20T08:11:29.952Z,41.34
2022-08-20T08:12:29.882Z,38.57
2022-08-20T08:13:29.877Z,36.80
2022-08-20T08:14:29.885Z,38.59
2022-08-20T08:15:29.894Z,39.43
2022-08-20T08:16:29.850Z,39.96
2022-08-20T08:17:29.854Z,39.33
2022-08-20T08:18:31.895Z,39.33
2022-08-20T08:19:30.835Z,39.10
2022-08-20T08:20:29.837Z,38.96
2022-08-20T08:21:29.845Z,39.17
2022-08-20T08:22:29.817Z,39.21
2022-08-20T08:23:32.069Z,39.02
2022-08-20T08:24:29.823Z,41.07
2022-08-20T08:25:30.794Z,41.06
2022-08-20T08:26:29.789Z,38.59
2022-08-20T08:27:29.879Z,39.51
2022-08-20T08:28:29.769Z,40.77
2022-08-20T08:29:29.756Z,38.48
2022-08-20T08:30:29.765Z,39.02
2022-08-20T08:31:30.353Z,39.24
2022-08-20T08:32:30.292Z,37.61
2022-08-20T08:33:29.898Z,39.04
2022-08-20T08:34:29.797Z,38.23
2022-08-20T08:35:29.788Z,35.88
2022-08-20T08:36:29.763Z,38.51
2022-08-20T08:37:30.897Z,35.62
2022-08-20T08:38:30.685Z,36.41
2022-08-20T08:39:34.645Z,37.94
2022-08-20T08:40:30.728Z,37.99
2022-08-20T08:41:29.733Z,37.85
2022-08-20T08:42:29.786Z,35.01
2022-08-20T08:43:31.832Z,38.03
2022-08-20T08:44:30.329Z,39.10
2022-08-20T08:45:29.878Z,38.58
2022-08-20T08:46:30.327Z,38.81
2022-08-20T08:47:30.331Z,39.00
2022-08-20T08:48:29.698Z,38.46
2022-08-20T08:49:37.289Z,37.92
2022-08-20T08:50:53.027Z,37.71
2022-08-20T08:51:31.746Z,37.59
2022-08-20T08:52:31.928Z,38.05
2022-08-20T08:53:29.712Z,37.46
2022-08-20T08:54:29.647Z,39.81
2022-08-20T08:55:30.333Z,39.16
2022-08-20T08:56:29.868Z,39.95
2022-08-20T08:57:30.323Z,39.64
2022-08-20T08:58:30.334Z,37.02
2022-08-20T08:59:46.202Z,35.90
2022-08-20T09:00:31.282Z,38.24
2022-08-20T09:01:55.096Z,38.68
2022-08-20T09:02:31.328Z,37.46
2022-08-20T09:03:30.283Z,36.98
2022-08-20T09:04:30.325Z,41.84
2022-08-20T09:05:30.288Z,45.09
2022-08-20T09:06:30.287Z,39.53
2022-08-20T09:07:30.285Z,40.70
2022-08-20T09:08:29.663Z,40.63
2022-08-20T09:09:29.689Z,39.15
2022-08-20T09:10:30.285Z,39.19
2022-08-20T09:11:29.882Z,40.69
2022-08-20T09:12:30.397Z,38.68
2022-08-20T09:13:29.657Z,37.98
2022-08-20T09:14:29.674Z,36.68
2022-08-20T09:15:29.565Z,35.51
2022-08-20T09:16:30.060Z,35.62
2022-08-20T09:17:31.296Z,35.82
2022-08-20T09:18:29.418Z,36.40
2022-08-20T09:19:29.446Z,35.80
2022-08-20T09:20:29.411Z,38.67
2022-08-20T09:21:29.407Z,39.63
2022-08-20T09:22:29.584Z,34.87
2022-08-20T09:23:29.389Z,33.01
2022-08-20T09:24:30.793Z,36.89
2022-08-20T09:25:29.381Z,36.20
2022-08-20T09:26:29.428Z,36.22
2022-08-20T09:27:29.383Z,35.98
2022-08-20T09:28:32.244Z,34.87
2022-08-20T09:29:29.380Z,37.80
2022-08-20T09:30:29.339Z,37.26
2022-08-20T09:31:29.362Z,38.82
2022-08-20T09:32:29.380Z,37.30
2022-08-20T09:33:29.326Z,35.33
2022-08-20T09:34:29.349Z,38.58
2022-08-20T09:35:29.305Z,35.09
2022-08-20T09:36:32.327Z,37.48
2022-08-20T09:37:33.646Z,34.91
2022-08-20T09:38:30.293Z,39.94
2022-08-20T09:39:29.274Z,37.13
2022-08-20T09:40:29.272Z,36.66
2022-08-20T09:41:29.308Z,33.67
2022-08-20T09:42:29.282Z,36.02
2022-08-20T09:43:29.322Z,35.90
2022-08-20T09:44:29.255Z,35.57
2022-08-20T09:45:29.289Z,35.27
2022-08-20T09:46:29.237Z,33.69
2022-08-20T09:47:29.244Z,34.97
2022-08-20T09:48:31.916Z,34.52
2022-08-20T09:49:29.208Z,37.44
2022-08-20T09:50:29.230Z,36.56
2022-08-20T09:51:29.217Z,38.37
2022-08-20T09:52:29.190Z,36.69
2022-08-20T09:53:29.191Z,36.59
2022-08-20T09:54:29.227Z,34.18
2022-08-20T09:55:29.179Z,33.40
2022-08-20T09:56:29.173Z,33.49
2022-08-20T09:57:29.167Z,33.45
2022-08-20T09:58:29.150Z,34.50
2022-08-20T09:59:29.205Z,34.80
2022-08-20T10:00:29.160Z,34.04
2022-08-20T10:01:29.217Z,35.57
2022-08-20T10:02:29.132Z,39.49
2022-08-20T10:03:29.150Z,38.93
2022-08-20T10:04:29.125Z,33.90
2022-08-20T10:05:29.159Z,34.67
2022-08-20T10:06:29.136Z,34.59
2022-08-20T10:07:29.108Z,31.36
2022-08-20T10:08:29.087Z,34.33
2022-08-20T10:09:29.097Z,39.99
2022-08-20T10:10:29.088Z,33.52
2022-08-20T10:11:29.090Z,35.02
2022-08-20T10:12:29.075Z,33.94
2022-08-20T10:13:29.060Z,34.65
2022-08-20T10:14:29.066Z,35.00
2022-08-20T10:15:29.060Z,32.43
2022-08-20T10:16:29.040Z,35.28
2022-08-20T10:17:29.026Z,36.62
2022-08-20T10:18:29.770Z,36.40
2022-08-20T10:19:30.084Z,38.37
2022-08-20T10:20:29.033Z,35.35
2022-08-20T10:21:29.017Z,41.60
2022-08-20T10:22:28.993Z,34.34
2022-08-20T10:23:28.988Z,35.26
2022-08-20T10:24:28.995Z,37.55
2022-08-20T10:25:29.010Z,36.62
2022-08-20T10:26:28.972Z,38.79
2022-08-20T10:27:28.965Z,34.59
2022-08-20T10:29:01.865Z,35.66
2022-08-20T10:29:28.970Z,37.27
2022-08-20T10:30:28.994Z,34.90
2022-08-20T10:31:28.945Z,33.39
2022-08-20T10:32:28.930Z,35.77
2022-08-20T10:33:28.925Z,36.92
2022-08-20T10:34:28.927Z,33.89
2022-08-20T10:35:28.935Z,35.24
2022-08-20T10:36:28.954Z,37.31
2022-08-20T10:37:28.896Z,39.04
2022-08-20T10:38:28.886Z,38.45
2022-08-20T10:39:28.879Z,37.00
2022-08-20T10:40:28.873Z,36.11
2022-08-20T10:41:28.889Z,37.03
2022-08-20T10:42:28.855Z,37.05
2022-08-20T10:43:28.854Z,36.03
2022-08-20T10:44:28.932Z,35.92
2022-08-20T10:45:28.884Z,41.55
2022-08-20T10:46:29.936Z,40.26
2022-08-20T10:47:28.822Z,38.75
2022-08-20T10:48:28.813Z,37.36
2022-08-20T10:49:28.825Z,39.96
2022-08-20T10:50:30.482Z,34.88
2022-08-20T10:51:32.142Z,34.89
2022-08-20T10:52:28.823Z,35.90
2022-08-20T10:53:28.779Z,35.93
2022-08-20T10:54:28.778Z,37.90
2022-08-20T10:55:29.079Z,40.64
2022-08-20T10:56:28.807Z,45.87
2022-08-20T10:57:28.833Z,43.97
2022-08-20T10:58:37.557Z,43.46
2022-08-20T10:59:29.736Z,42.49
2022-08-20T11:00:28.739Z,37.01
2022-08-20T11:01:32.733Z,39.14
2022-08-20T11:02:29.819Z,37.64
2022-08-20T11:03:28.717Z,38.07
2022-08-20T11:04:28.720Z,36.83
2022-08-20T11:05:28.733Z,38.35
2022-08-20T11:06:28.821Z,36.90
2022-08-20T11:07:49.440Z,37.40
2022-08-20T11:08:33.866Z,35.83
2022-08-20T11:09:29.670Z,35.76
2022-08-20T11:10:28.692Z,37.51
2022-08-20T11:11:28.669Z,38.93
2022-08-20T11:12:28.903Z,36.26
2022-08-20T11:13:28.881Z,37.87
2022-08-20T11:14:28.640Z,40.69
2022-08-20T11:15:28.639Z,41.20
2022-08-20T11:16:28.869Z,42.10
2022-08-20T11:17:28.739Z,36.10
2022-08-20T11:18:29.232Z,37.42
2022-08-20T11:19:28.781Z,38.60
2022-08-20T11:20:28.738Z,38.18
2022-08-20T11:21:29.225Z,39.36
2022-08-20T11:22:28.947Z,37.15
2022-08-20T11:23:28.702Z,43.64
2022-08-20T11:24:28.679Z,44.20
2022-08-20T11:25:28.687Z,42.57
2022-08-20T11:26:29.028Z,44.48
2022-08-20T11:27:28.818Z,48.22
2022-08-20T11:28:31.382Z,45.74
2022-08-20T11:29:33.399Z,41.46
2022-08-20T11:30:30.717Z,44.07
2022-08-20T11:31:29.227Z,43.48
2022-08-20T11:32:28.623Z,48.52
2022-08-20T11:33:28.725Z,48.16
2022-08-20T11:34:28.676Z,45.84
2022-08-20T11:35:49.194Z,44.79
2022-08-20T11:36:30.486Z,44.51
2022-08-20T11:37:28.636Z,50.87
2022-08-20T11:38:28.693Z,49.96
2022-08-20T11:39:28.607Z,43.56
2022-08-20T11:40:28.860Z,45.33
2022-08-20T11:41:28.878Z,47.05
2022-08-20T11:42:28.530Z,47.94
2022-08-20T11:43:28.712Z,48.88
2022-08-20T11:44:28.435Z,48.93
2022-08-20T11:45:28.618Z,48.46
2022-08-20T11:46:28.759Z,47.63
2022-08-20T11:47:29.410Z,52.72
2022-08-20T11:48:28.631Z,56.52
2022-08-20T11:49:29.226Z,57.16
2022-08-20T11:50:29.397Z,55.17
2022-08-20T11:51:28.702Z,53.81
2022-08-20T11:52:28.397Z,58.12
2022-08-20T11:53:28.408Z,58.74
2022-08-20T11:54:28.400Z,58.79
2022-08-20T11:55:28.490Z,58.69
2022-08-20T11:56:28.383Z,59.09
2022-08-20T11:57:28.382Z,57.64
2022-08-20T11:58:28.345Z,56.34
2022-08-20T11:59:28.365Z,53.17
2022-08-20T12:00:31.992Z,50.26
2022-08-20T12:01:28.368Z,50.71
2022-08-20T12:02:28.350Z,47.01
2022-08-20T12:03:28.324Z,46.45
2022-08-20T12:04:28.360Z,47.16
2022-08-20T12:05:28.292Z,44.99
2022-08-20T12:06:28.284Z,45.37
2022-08-20T12:07:28.303Z,43.44
2022-08-20T12:08:28.309Z,48.00
2022-08-20T12:09:28.294Z,44.21
2022-08-20T12:10:28.268Z,43.38
2022-08-20T12:11:28.238Z,41.29
2022-08-20T12:12:28.233Z,42.17
2022-08-20T12:13:30.786Z,39.71
2022-08-20T12:14:29.260Z,43.42
2022-08-20T12:15:28.232Z,41.86
2022-08-20T12:16:28.214Z,41.24
2022-08-20T12:17:28.193Z,40.83
2022-08-20T12:18:28.186Z,41.12
2022-08-20T12:19:28.189Z,41.17
2022-08-20T12:20:28.191Z,42.97
2022-08-20T12:21:32.002Z,42.43
2022-08-20T12:22:29.171Z,39.63
2022-08-20T12:23:28.153Z,39.23
2022-08-20T12:24:29.338Z,41.36
2022-08-20T12:25:28.227Z,41.19
2022-08-20T12:26:28.143Z,41.78
2022-08-20T12:27:28.408Z,39.80
2022-08-20T12:28:28.114Z,41.54
2022-08-20T12:29:28.111Z,42.91
2022-08-20T12:30:28.170Z,41.71
2022-08-20T12:31:28.092Z,41.35
2022-08-20T12:32:28.099Z,39.99
2022-08-20T12:33:28.081Z,41.75
2022-08-20T12:34:28.085Z,41.94
2022-08-20T12:35:28.064Z,41.61
2022-08-20T12:36:28.111Z,42.07
2022-08-20T12:37:28.063Z,37.67
2022-08-20T12:38:28.053Z,40.51
2022-08-20T12:39:28.047Z,42.05
2022-08-20T12:40:31.962Z,40.88
2022-08-20T12:41:28.065Z,41.82
2022-08-20T12:42:28.020Z,41.01
2022-08-20T12:43:28.017Z,40.68
2022-08-20T12:44:28.002Z,43.23
2022-08-20T12:45:28.005Z,43.03
2022-08-20T12:46:27.990Z,43.32
2022-08-20T12:47:28.018Z,42.39
2022-08-20T12:48:27.988Z,40.65
2022-08-20T12:49:27.978Z,44.83
2022-08-20T12:50:31.395Z,40.92
2022-08-20T12:51:28.973Z,42.20
2022-08-20T12:52:28.039Z,39.77